sensor_id;sensor_type;location;lat;lon;timestamp;pressure;altitude;pressure_sealevel;temperature;humidity
65553;BME280;72126;51.560;14.368;2023-09-30T00:00:22;100590.09;;;23.22;53.68
65553;BME280;72126;51.560;14.368;2023-09-30T00:02:47;100601.59;;;23.23;53.96
65553;BME280;72126;51.560;14.368;2023-09-30T00:05:12;100599.97;;;23.22;53.96
65553;BME280;72126;51.560;14.368;2023-09-30T00:07:37;100604.50;;;23.21;53.61
65553;BME280;72126;51.560;14.368;2023-09-30T00:10:03;100614.38;;;23.21;53.58
65553;BME280;72126;51.560;14.368;2023-09-30T00:12:28;100622.38;;;23.21;53.92
65553;BME280;72126;51.560;14.368;2023-09-30T00:14:54;100615.41;;;23.20;54.03
65553;BME280;72126;51.560;14.368;2023-09-30T00:17:19;100622.63;;;23.19;53.93
65553;BME280;72126;51.560;14.368;2023-09-30T00:19:44;100627.97;;;23.19;53.80
65553;BME280;72126;51.560;14.368;2023-09-30T00:22:09;100625.28;;;23.19;54.12
65553;BME280;72126;51.560;14.368;2023-09-30T00:24:34;100631.69;;;23.18;54.14
65553;BME280;72126;51.560;14.368;2023-09-30T00:27:00;100632.50;;;23.19;53.70
65553;BME280;72126;51.560;14.368;2023-09-30T00:29:25;100636.22;;;23.18;54.05
65553;BME280;72126;51.560;14.368;2023-09-30T00:31:50;100634.56;;;23.17;53.80
65553;BME280;72126;51.560;14.368;2023-09-30T00:34:15;100629.22;;;23.17;53.94
65553;BME280;72126;51.560;14.368;2023-09-30T00:36:40;100636.44;;;23.16;54.19
65553;BME280;72126;51.560;14.368;2023-09-30T00:39:07;100635.63;;;23.16;53.73
65553;BME280;72126;51.560;14.368;2023-09-30T00:41:32;100629.47;;;23.15;53.91
65553;BME280;72126;51.560;14.368;2023-09-30T00:43:57;100631.31;;;23.15;54.16
65553;BME280;72126;51.560;14.368;2023-09-30T00:46:31;100635.03;;;23.14;54.31
65553;BME280;72126;51.560;14.368;2023-09-30T00:48:57;100640.38;;;23.14;53.99
65553;BME280;72126;51.560;14.368;2023-09-30T00:51:23;100642.25;;;23.13;53.92
65553;BME280;72126;51.560;14.368;2023-09-30T00:53:50;100647.59;;;23.13;53.74
65553;BME280;72126;51.560;14.368;2023-09-30T00:56:21;100645.13;;;23.12;53.83
65553;BME280;72126;51.560;14.368;2023-09-30T00:58:48;100653.13;;;23.12;54.21
65553;BME280;72126;51.560;14.368;2023-09-30T01:01:15;100643.50;;;23.11;54.12
65553;BME280;72126;51.560;14.368;2023-09-30T01:03:40;100651.50;;;23.11;54.17
65553;BME280;72126;51.560;14.368;2023-09-30T01:06:05;100651.50;;;23.11;54.18
65553;BME280;72126;51.560;14.368;2023-09-30T01:08:31;100656.03;;;23.10;53.96
65553;BME280;72126;51.560;14.368;2023-09-30T01:10:57;100660.56;;;23.10;54.26
65553;BME280;72126;51.560;14.368;2023-09-30T01:13:23;100664.28;;;23.09;53.99
65553;BME280;72126;51.560;14.368;2023-09-30T01:15:48;100674.97;;;23.09;54.44
65553;BME280;72126;51.560;14.368;2023-09-30T01:18:13;100679.75;;;23.07;54.34
65553;BME280;72126;51.560;14.368;2023-09-30T01:20:38;100687.75;;;23.07;54.26
65553;BME280;72126;51.560;14.368;2023-09-30T01:23:04;100686.09;;;23.06;54.36
65553;BME280;72126;51.560;14.368;2023-09-30T01:25:29;100687.16;;;23.05;54.38
65553;BME280;72126;51.560;14.368;2023-09-30T01:27:55;100695.97;;;23.05;54.26
65553;BME280;72126;51.560;14.368;2023-09-30T01:30:20;100692.72;;;23.03;54.55
65553;BME280;72126;51.560;14.368;2023-09-30T01:32:45;100698.06;;;23.03;54.25
65553;BME280;72126;51.560;14.368;2023-09-30T01:35:10;100699.94;;;23.03;54.29
65553;BME280;72126;51.560;14.368;2023-09-30T01:37:36;100703.66;;;23.02;54.78
65553;BME280;72126;51.560;14.368;2023-09-30T01:40:02;100706.31;;;23.02;54.31
65553;BME280;72126;51.560;14.368;2023-09-30T01:42:27;100711.06;;;23.00;54.85
65553;BME280;72126;51.560;14.368;2023-09-30T01:44:52;100712.91;;;22.99;54.35
65553;BME280;72126;51.560;14.368;2023-09-30T01:47:18;100725.44;;;22.99;54.97
65553;BME280;72126;51.560;14.368;2023-09-30T01:49:43;100729.97;;;22.98;54.88
65553;BME280;72126;51.560;14.368;2023-09-30T01:52:08;100728.34;;;22.97;54.46
65553;BME280;72126;51.560;14.368;2023-09-30T01:54:33;100732.88;;;22.96;54.91
65553;BME280;72126;51.560;14.368;2023-09-30T01:56:58;100731.25;;;22.95;54.87
65553;BME280;72126;51.560;14.368;2023-09-30T01:59:24;100727.97;;;22.93;54.89
65553;BME280;72126;51.560;14.368;2023-09-30T02:01:49;100731.47;;;22.94;54.69
65553;BME280;72126;51.560;14.368;2023-09-30T02:04:14;100737.84;;;22.93;55.10
65553;BME280;72126;51.560;14.368;2023-09-30T02:06:39;100745.03;;;22.92;54.64
65553;BME280;72126;51.560;14.368;2023-09-30T02:09:05;100732.75;;;22.91;54.87
65553;BME280;72126;51.560;14.368;2023-09-30T02:11:30;100738.09;;;22.91;54.96
65553;BME280;72126;51.560;14.368;2023-09-30T02:13:55;100749.81;;;22.90;54.93
65553;BME280;72126;51.560;14.368;2023-09-30T02:16:20;100750.81;;;22.89;54.95
65553;BME280;72126;51.560;14.368;2023-09-30T02:18:45;100751.88;;;22.88;54.61
65553;BME280;72126;51.560;14.368;2023-09-30T02:21:11;100759.06;;;22.88;55.00
65553;BME280;72126;51.560;14.368;2023-09-30T02:23:36;100757.22;;;22.88;54.67
65553;BME280;72126;51.560;14.368;2023-09-30T02:26:02;100752.06;;;22.87;54.90
65553;BME280;72126;51.560;14.368;2023-09-30T02:28:27;100752.31;;;22.85;54.92
65553;BME280;72126;51.560;14.368;2023-09-30T02:30:54;100767.50;;;22.85;54.92
65553;BME280;72126;51.560;14.368;2023-09-30T02:33:19;100774.72;;;22.84;54.70
65553;BME280;72126;51.560;14.368;2023-09-30T02:35:45;100783.72;;;22.83;55.03
65553;BME280;72126;51.560;14.368;2023-09-30T02:38:10;100784.53;;;22.84;55.18
65553;BME280;72126;51.560;14.368;2023-09-30T02:40:36;100783.97;;;22.82;54.73
65553;BME280;72126;51.560;14.368;2023-09-30T02:43:02;100786.63;;;22.82;54.90
65553;BME280;72126;51.560;14.368;2023-09-30T02:45:28;100798.34;;;22.81;54.95
65553;BME280;72126;51.560;14.368;2023-09-30T02:47:53;100800.22;;;22.80;55.22
65553;BME280;72126;51.560;14.368;2023-09-30T02:50:18;100810.09;;;22.80;55.16
65553;BME280;72126;51.560;14.368;2023-09-30T02:52:43;100807.63;;;22.78;55.10
65553;BME280;72126;51.560;14.368;2023-09-30T02:55:10;100816.66;;;22.77;54.58
65553;BME280;72126;51.560;14.368;2023-09-30T02:57:35;100825.72;;;22.76;54.68
65553;BME280;72126;51.560;14.368;2023-09-30T03:00:03;100825.13;;;22.74;54.97
65553;BME280;72126;51.560;14.368;2023-09-30T03:02:28;100826.75;;;22.75;54.98
65553;BME280;72126;51.560;14.368;2023-09-30T03:04:53;100828.00;;;22.73;54.80
65553;BME280;72126;51.560;14.368;2023-09-30T03:07:20;100835.19;;;22.72;54.78
65553;BME280;72126;51.560;14.368;2023-09-30T03:09:45;100844.25;;;22.71;54.74
65553;BME280;72126;51.560;14.368;2023-09-30T03:12:11;100845.88;;;22.72;54.92
65553;BME280;72126;51.560;14.368;2023-09-30T03:14:36;100847.97;;;22.70;54.71
65553;BME280;72126;51.560;14.368;2023-09-30T03:17:01;100858.88;;;22.68;54.75
65553;BME280;72126;51.560;14.368;2023-09-30T03:19:26;100859.06;;;22.67;54.75
65553;BME280;72126;51.560;14.368;2023-09-30T03:21:52;100868.72;;;22.68;54.84
65553;BME280;72126;51.560;14.368;2023-09-30T03:24:17;100880.41;;;22.67;54.75
65553;BME280;72126;51.560;14.368;2023-09-30T03:26:42;100883.31;;;22.65;54.68
65553;BME280;72126;51.560;14.368;2023-09-30T03:29:10;100887.03;;;22.64;54.65
65553;BME280;72126;51.560;14.368;2023-09-30T03:31:36;100889.94;;;22.63;54.33
65553;BME280;72126;51.560;14.368;2023-09-30T03:34:03;100885.63;;;22.62;54.82
65553;BME280;72126;51.560;14.368;2023-09-30T03:36:28;100890.13;;;22.61;54.25
65553;BME280;72126;51.560;14.368;2023-09-30T03:38:53;100897.56;;;22.59;54.36
65553;BME280;72126;51.560;14.368;2023-09-30T03:41:18;100896.75;;;22.59;54.32
65553;BME280;72126;51.560;14.368;2023-09-30T03:43:43;100910.09;;;22.59;54.35
65553;BME280;72126;51.560;14.368;2023-09-30T03:46:09;100911.13;;;22.58;54.28
65553;BME280;72126;51.560;14.368;2023-09-30T03:48:34;100916.69;;;22.56;54.46
65553;BME280;72126;51.560;14.368;2023-09-30T03:51:08;100916.31;;;22.53;54.26
65553;BME280;72126;51.560;14.368;2023-09-30T03:53:33;100924.88;;;22.55;53.95
65553;BME280;72126;51.560;14.368;2023-09-30T03:55:59;100924.31;;;22.53;54.01
65553;BME280;72126;51.560;14.368;2023-09-30T03:58:24;100942.16;;;22.52;54.24
65553;BME280;72126;51.560;14.368;2023-09-30T04:00:49;100946.88;;;22.50;53.83
65553;BME280;72126;51.560;14.368;2023-09-30T04:03:14;100954.06;;;22.50;53.87
65553;BME280;72126;51.560;14.368;2023-09-30T04:05:39;100962.91;;;22.50;54.17
65553;BME280;72126;51.560;14.368;2023-09-30T04:08:05;100957.78;;;22.49;54.05
65553;BME280;72126;51.560;14.368;2023-09-30T04:10:30;100952.44;;;22.49;53.98
65553;BME280;72126;51.560;14.368;2023-09-30T04:12:55;100961.50;;;22.48;54.12
65553;BME280;72126;51.560;14.368;2023-09-30T04:15:21;100967.06;;;22.46;53.96
65553;BME280;72126;51.560;14.368;2023-09-30T04:17:48;100966.25;;;22.46;53.86
65553;BME280;72126;51.560;14.368;2023-09-30T04:20:13;100965.22;;;22.47;53.82
65553;BME280;72126;51.560;14.368;2023-09-30T04:22:38;100967.25;;;22.44;53.82
65553;BME280;72126;51.560;14.368;2023-09-30T04:25:04;100977.94;;;22.44;53.75
65553;BME280;72126;51.560;14.368;2023-09-30T04:27:29;100981.63;;;22.43;53.94
65553;BME280;72126;51.560;14.368;2023-09-30T04:29:54;100977.34;;;22.42;53.89
65553;BME280;72126;51.560;14.368;2023-09-30T04:32:20;100983.72;;;22.41;53.75
65553;BME280;72126;51.560;14.368;2023-09-30T04:34:45;100989.03;;;22.41;54.00
65553;BME280;72126;51.560;14.368;2023-09-30T04:37:10;100993.56;;;22.41;54.01
65553;BME280;72126;51.560;14.368;2023-09-30T04:39:35;100988.47;;;22.39;53.98
65553;BME280;72126;51.560;14.368;2023-09-30T04:42:01;100991.13;;;22.39;53.90
65553;BME280;72126;51.560;14.368;2023-09-30T04:44:26;100990.28;;;22.39;53.66
65553;BME280;72126;51.560;14.368;2023-09-30T04:46:51;101000.94;;;22.39;54.05
65553;BME280;72126;51.560;14.368;2023-09-30T04:49:16;101002.00;;;22.38;54.09
65553;BME280;72126;51.560;14.368;2023-09-30T04:51:41;101010.22;;;22.36;53.67
65553;BME280;72126;51.560;14.368;2023-09-30T04:54:07;101007.56;;;22.36;53.76
65553;BME280;72126;51.560;14.368;2023-09-30T04:56:32;101012.88;;;22.36;53.97
65553;BME280;72126;51.560;14.368;2023-09-30T04:58:57;101019.25;;;22.35;53.68
65553;BME280;72126;51.560;14.368;2023-09-30T05:01:22;101013.72;;;22.37;53.93
65553;BME280;72126;51.560;14.368;2023-09-30T05:03:48;101020.06;;;22.36;53.62
65553;BME280;72126;51.560;14.368;2023-09-30T05:06:13;101016.59;;;22.35;54.07
65553;BME280;72126;51.560;14.368;2023-09-30T05:08:38;101024.81;;;22.34;53.62
65553;BME280;72126;51.560;14.368;2023-09-30T05:11:03;101026.66;;;22.33;53.85
65553;BME280;72126;51.560;14.368;2023-09-30T05:13:28;101030.16;;;22.34;53.90
65553;BME280;72126;51.560;14.368;2023-09-30T05:15:53;101039.16;;;22.33;53.63
65553;BME280;72126;51.560;14.368;2023-09-30T05:18:19;101046.34;;;22.32;53.74
65553;BME280;72126;51.560;14.368;2023-09-30T05:20:44;101050.88;;;22.32;53.67
65553;BME280;72126;51.560;14.368;2023-09-30T05:23:09;101051.91;;;22.31;53.76
65553;BME280;72126;51.560;14.368;2023-09-30T05:25:34;101056.22;;;22.32;53.51
65553;BME280;72126;51.560;14.368;2023-09-30T05:28:00;101060.72;;;22.31;53.75
65553;BME280;72126;51.560;14.368;2023-09-30T05:30:25;101069.78;;;22.30;53.84
65553;BME280;72126;51.560;14.368;2023-09-30T05:32:51;101068.97;;;22.30;53.56
65553;BME280;72126;51.560;14.368;2023-09-30T05:35:16;101075.09;;;22.30;53.65
65553;BME280;72126;51.560;14.368;2023-09-30T05:37:42;101068.16;;;22.29;54.15
65553;BME280;72126;51.560;14.368;2023-09-30T05:40:08;101067.31;;;22.29;53.73
65553;BME280;72126;51.560;14.368;2023-09-30T05:42:34;101063.84;;;22.28;54.08
65553;BME280;72126;51.560;14.368;2023-09-30T05:44:59;101064.84;;;22.27;53.76
65553;BME280;72126;51.560;14.368;2023-09-30T05:47:25;101066.72;;;22.27;53.89
65553;BME280;72126;51.560;14.368;2023-09-30T05:49:50;101069.19;;;22.28;53.70
65553;BME280;72126;51.560;14.368;2023-09-30T05:52:15;101062.41;;;22.26;53.79
65553;BME280;72126;51.560;14.368;2023-09-30T05:54:40;101067.53;;;22.27;54.06
65553;BME280;72126;51.560;14.368;2023-09-30T05:57:05;101062.41;;;22.26;54.10
65553;BME280;72126;51.560;14.368;2023-09-30T05:59:31;101067.75;;;22.26;54.17
65553;BME280;72126;51.560;14.368;2023-09-30T06:01:56;101064.25;;;22.25;54.60
65553;BME280;72126;51.560;14.368;2023-09-30T06:04:21;101061.59;;;22.25;54.10
65553;BME280;72126;51.560;14.368;2023-09-30T06:06:47;101053.81;;;22.24;53.95
65553;BME280;72126;51.560;14.368;2023-09-30T06:09:12;101061.81;;;22.24;54.13
65553;BME280;72126;51.560;14.368;2023-09-30T06:11:37;101058.34;;;22.23;53.79
65553;BME280;72126;51.560;14.368;2023-09-30T06:14:02;101057.72;;;22.21;53.94
65553;BME280;72126;51.560;14.368;2023-09-30T06:16:28;101060.19;;;22.23;54.03
65553;BME280;72126;51.560;14.368;2023-09-30T06:18:54;101075.34;;;22.22;54.02
65553;BME280;72126;51.560;14.368;2023-09-30T06:21:21;101072.91;;;22.21;53.96
65553;BME280;72126;51.560;14.368;2023-09-30T06:23:47;101085.41;;;22.20;54.03
65553;BME280;72126;51.560;14.368;2023-09-30T06:26:13;101092.59;;;22.20;53.77
65553;BME280;72126;51.560;14.368;2023-09-30T06:28:38;101094.22;;;22.21;54.17
65553;BME280;72126;51.560;14.368;2023-09-30T06:31:05;101088.31;;;22.18;54.36
65553;BME280;72126;51.560;14.368;2023-09-30T06:33:30;101105.13;;;22.19;54.05
65553;BME280;72126;51.560;14.368;2023-09-30T06:35:55;101106.97;;;22.18;53.93
65553;BME280;72126;51.560;14.368;2023-09-30T06:38:21;101113.34;;;22.17;53.93
65553;BME280;72126;51.560;14.368;2023-09-30T06:40:46;101124.00;;;22.17;54.08
65553;BME280;72126;51.560;14.368;2023-09-30T06:43:12;101127.69;;;22.16;54.15
65553;BME280;72126;51.560;14.368;2023-09-30T06:45:37;101136.53;;;22.17;54.35
65553;BME280;72126;51.560;14.368;2023-09-30T06:48:03;101150.88;;;22.16;54.10
65553;BME280;72126;51.560;14.368;2023-09-30T06:50:28;101156.22;;;22.16;53.94
65553;BME280;72126;51.560;14.368;2023-09-30T06:52:53;101152.94;;;22.14;54.15
65553;BME280;72126;51.560;14.368;2023-09-30T06:55:18;101154.56;;;22.15;54.25
65553;BME280;72126;51.560;14.368;2023-09-30T06:57:44;101151.09;;;22.14;53.83
65553;BME280;72126;51.560;14.368;2023-09-30T07:00:10;101160.94;;;22.14;53.83
65553;BME280;72126;51.560;14.368;2023-09-30T07:02:36;101169.97;;;22.13;54.27
65553;BME280;72126;51.560;14.368;2023-09-30T07:05:09;101183.53;;;22.11;54.11
65553;BME280;72126;51.560;14.368;2023-09-30T07:07:34;101182.69;;;22.11;54.27
65553;BME280;72126;51.560;14.368;2023-09-30T07:09:59;101181.88;;;22.10;54.03
65553;BME280;72126;51.560;14.368;2023-09-30T07:12:27;101192.53;;;22.10;53.83
65553;BME280;72126;51.560;14.368;2023-09-30T07:14:53;101197.88;;;22.10;54.13
65553;BME280;72126;51.560;14.368;2023-09-30T07:17:18;101182.69;;;22.11;54.25
65553;BME280;72126;51.560;14.368;2023-09-30T07:19:43;101186.38;;;22.10;54.38
65553;BME280;72126;51.560;14.368;2023-09-30T07:22:08;101183.72;;;22.10;53.94
65553;BME280;72126;51.560;14.368;2023-09-30T07:24:33;101189.06;;;22.10;54.13
65553;BME280;72126;51.560;14.368;2023-09-30T07:26:59;101181.06;;;22.10;53.81
65553;BME280;72126;51.560;14.368;2023-09-30T07:29:24;101188.03;;;22.11;54.17
65553;BME280;72126;51.560;14.368;2023-09-30T07:31:49;101179.22;;;22.10;53.85
65553;BME280;72126;51.560;14.368;2023-09-30T07:34:14;101195.22;;;22.10;54.00
65553;BME280;72126;51.560;14.368;2023-09-30T07:36:39;101199.72;;;22.10;53.71
65553;BME280;72126;51.560;14.368;2023-09-30T07:39:05;101200.53;;;22.10;53.84
65553;BME280;72126;51.560;14.368;2023-09-30T07:41:34;101202.38;;;22.10;53.83
65553;BME280;72126;51.560;14.368;2023-09-30T07:44:00;101214.88;;;22.09;53.91
65553;BME280;72126;51.560;14.368;2023-09-30T07:46:25;101210.38;;;22.10;53.81
65553;BME280;72126;51.560;14.368;2023-09-30T07:48:50;101200.53;;;22.10;53.90
65553;BME280;72126;51.560;14.368;2023-09-30T07:51:15;101204.22;;;22.09;53.80
65553;BME280;72126;51.560;14.368;2023-09-30T07:53:40;101203.22;;;22.10;53.75
65553;BME280;72126;51.560;14.368;2023-09-30T07:56:06;101197.06;;;22.10;53.86
65553;BME280;72126;51.560;14.368;2023-09-30T07:58:31;101203.22;;;22.10;54.04
65553;BME280;72126;51.560;14.368;2023-09-30T08:00:56;101196.22;;;22.09;53.72
65553;BME280;72126;51.560;14.368;2023-09-30T08:03:22;101207.72;;;22.10;54.00
65553;BME280;72126;51.560;14.368;2023-09-30T08:05:47;101214.88;;;22.09;53.81
65553;BME280;72126;51.560;14.368;2023-09-30T08:08:12;101213.88;;;22.10;53.86
65553;BME280;72126;51.560;14.368;2023-09-30T08:10:37;101202.38;;;22.10;53.98
65553;BME280;72126;51.560;14.368;2023-09-30T08:13:03;101204.22;;;22.09;53.84
65553;BME280;72126;51.560;14.368;2023-09-30T08:15:29;101210.38;;;22.10;53.56
65553;BME280;72126;51.560;14.368;2023-09-30T08:17:54;101217.34;;;22.11;53.94
65553;BME280;72126;51.560;14.368;2023-09-30T08:20:19;101205.88;;;22.10;53.86
65553;BME280;72126;51.560;14.368;2023-09-30T08:22:44;101213.88;;;22.10;53.84
65553;BME280;72126;51.560;14.368;2023-09-30T08:25:09;101207.53;;;22.11;53.65
65553;BME280;72126;51.560;14.368;2023-09-30T08:27:36;101213.88;;;22.10;53.41
65553;BME280;72126;51.560;14.368;2023-09-30T08:30:02;101220.03;;;22.11;53.86
65553;BME280;72126;51.560;14.368;2023-09-30T08:32:27;101221.06;;;22.10;53.59
65553;BME280;72126;51.560;14.368;2023-09-30T08:34:52;101216.53;;;22.10;53.51
65553;BME280;72126;51.560;14.368;2023-09-30T08:37:17;101214.06;;;22.09;53.67
65553;BME280;72126;51.560;14.368;2023-09-30T08:39:43;101198.06;;;22.09;53.84
65553;BME280;72126;51.560;14.368;2023-09-30T08:42:09;101198.06;;;22.09;53.61
65553;BME280;72126;51.560;14.368;2023-09-30T08:44:37;101211.41;;;22.09;53.68
65553;BME280;72126;51.560;14.368;2023-09-30T08:47:03;101209.75;;;22.08;53.57
65553;BME280;72126;51.560;14.368;2023-09-30T08:49:29;101218.56;;;22.08;53.64
65553;BME280;72126;51.560;14.368;2023-09-30T08:51:54;101216.72;;;22.09;53.71
65553;BME280;72126;51.560;14.368;2023-09-30T08:54:21;101210.56;;;22.08;53.74
65553;BME280;72126;51.560;14.368;2023-09-30T08:56:47;101220.44;;;22.08;53.54
65553;BME280;72126;51.560;14.368;2023-09-30T08:59:13;101223.91;;;22.08;53.45
65553;BME280;72126;51.560;14.368;2023-09-30T09:01:39;101217.75;;;22.08;53.34
65553;BME280;72126;51.560;14.368;2023-09-30T09:04:06;101213.25;;;22.08;53.73
65553;BME280;72126;51.560;14.368;2023-09-30T09:06:35;101226.78;;;22.07;53.39
65553;BME280;72126;51.560;14.368;2023-09-30T09:09:15;101220.44;;;22.08;53.26
65553;BME280;72126;51.560;14.368;2023-09-30T09:11:41;101220.22;;;22.09;53.54
65553;BME280;72126;51.560;14.368;2023-09-30T09:14:06;101218.56;;;22.08;53.30
65553;BME280;72126;51.560;14.368;2023-09-30T09:16:31;101219.41;;;22.09;53.32
65553;BME280;72126;51.560;14.368;2023-09-30T09:18:56;101214.88;;;22.09;53.22
65553;BME280;72126;51.560;14.368;2023-09-30T09:21:22;101223.91;;;22.08;53.12
65553;BME280;72126;51.560;14.368;2023-09-30T09:23:49;101230.06;;;22.09;53.04
65553;BME280;72126;51.560;14.368;2023-09-30T09:28:43;101232.72;;;22.09;53.33
65553;BME280;72126;51.560;14.368;2023-09-30T09:31:34;101238.28;;;22.07;53.18
65553;BME280;72126;51.560;14.368;2023-09-30T09:34:00;101232.94;;;22.07;53.32
65553;BME280;72126;51.560;14.368;2023-09-30T09:36:39;101240.94;;;22.07;53.05
65553;BME280;72126;51.560;14.368;2023-09-30T09:39:04;101238.28;;;22.07;53.03
65553;BME280;72126;51.560;14.368;2023-09-30T09:41:30;101240.94;;;22.07;53.12
65553;BME280;72126;51.560;14.368;2023-09-30T09:43:57;101236.44;;;22.08;52.93
65553;BME280;72126;51.560;14.368;2023-09-30T09:46:23;101241.75;;;22.08;53.30
65553;BME280;72126;51.560;14.368;2023-09-30T09:48:49;101239.91;;;22.08;52.95
65553;BME280;72126;51.560;14.368;2023-09-30T09:51:14;101242.56;;;22.08;53.04
65553;BME280;72126;51.560;14.368;2023-09-30T09:53:41;101244.44;;;22.08;53.03
65553;BME280;72126;51.560;14.368;2023-09-30T09:56:09;101239.31;;;22.06;53.21
65553;BME280;72126;51.560;14.368;2023-09-30T09:58:38;101238.28;;;22.07;52.68
65553;BME280;72126;51.560;14.368;2023-09-30T10:01:05;101240.72;;;22.09;52.95
65553;BME280;72126;51.560;14.368;2023-09-30T10:03:31;101230.06;;;22.09;52.88
65553;BME280;72126;51.560;14.368;2023-09-30T10:05:56;101234.41;;;22.10;53.04
65553;BME280;72126;51.560;14.368;2023-09-30T10:08:29;101242.41;;;22.10;53.01
65553;BME280;72126;51.560;14.368;2023-09-30T10:10:55;101240.34;;;22.12;53.17
65553;BME280;72126;51.560;14.368;2023-09-30T10:16:49;101238.69;;;22.11;52.55
65553;BME280;72126;51.560;14.368;2023-09-30T10:19:20;101241.19;;;22.12;52.61
65553;BME280;72126;51.560;14.368;2023-09-30T10:24:43;101235.03;;;22.12;52.84
65553;BME280;72126;51.560;14.368;2023-09-30T10:29:58;101234.22;;;22.11;52.59
65553;BME280;72126;51.560;14.368;2023-09-30T10:35:15;101222.28;;;22.14;52.36
65553;BME280;72126;51.560;14.368;2023-09-30T10:37:40;101232.75;;;22.15;52.29
65553;BME280;72126;51.560;14.368;2023-09-30T10:40:06;101237.03;;;22.16;52.29
65553;BME280;72126;51.560;14.368;2023-09-30T10:42:48;101229.88;;;22.17;52.35
65553;BME280;72126;51.560;14.368;2023-09-30T10:48:41;101233.38;;;22.17;51.99
65553;BME280;72126;51.560;14.368;2023-09-30T10:51:16;101227.22;;;22.17;51.94
65553;BME280;72126;51.560;14.368;2023-09-30T10:53:47;101233.38;;;22.17;51.83
65553;BME280;72126;51.560;14.368;2023-09-30T10:56:15;101223.69;;;22.16;52.20
65553;BME280;72126;51.560;14.368;2023-09-30T10:58:41;101228.22;;;22.16;51.95
65553;BME280;72126;51.560;14.368;2023-09-30T11:01:07;101221.03;;;22.16;51.97
65553;BME280;72126;51.560;14.368;2023-09-30T11:03:32;101224.56;;;22.17;52.01
65553;BME280;72126;51.560;14.368;2023-09-30T11:05:57;101233.38;;;22.17;52.19
65553;BME280;72126;51.560;14.368;2023-09-30T11:08:23;101225.38;;;22.17;51.89
65553;BME280;72126;51.560;14.368;2023-09-30T11:10:49;101228.03;;;22.17;51.99
65553;BME280;72126;51.560;14.368;2023-09-30T11:13:14;101224.56;;;22.17;52.03
65553;BME280;72126;51.560;14.368;2023-09-30T11:15:39;101223.50;;;22.18;52.19
65553;BME280;72126;51.560;14.368;2023-09-30T11:18:15;101227.22;;;22.17;52.11
65553;BME280;72126;51.560;14.368;2023-09-30T11:20:41;101218.19;;;22.18;52.21
65553;BME280;72126;51.560;14.368;2023-09-30T11:23:07;101228.84;;;22.18;51.88
65553;BME280;72126;51.560;14.368;2023-09-30T11:25:37;101232.56;;;22.17;52.03
65553;BME280;72126;51.560;14.368;2023-09-30T11:28:15;101221.88;;;22.17;52.15
65553;BME280;72126;51.560;14.368;2023-09-30T11:31:00;101224.56;;;22.17;51.72
65553;BME280;72126;51.560;14.368;2023-09-30T11:33:26;101215.69;;;22.16;51.74
65553;BME280;72126;51.560;14.368;2023-09-30T11:36:03;101212.22;;;22.16;51.83
65553;BME280;72126;51.560;14.368;2023-09-30T11:38:29;101210.38;;;22.16;51.87
65553;BME280;72126;51.560;14.368;2023-09-30T11:40:59;101213.88;;;22.17;52.21
65553;BME280;72126;51.560;14.368;2023-09-30T11:43:24;101214.69;;;22.17;52.02
65553;BME280;72126;51.560;14.368;2023-09-30T11:45:49;101212.22;;;22.16;51.79
65553;BME280;72126;51.560;14.368;2023-09-30T11:48:19;101209.56;;;22.16;51.88
65553;BME280;72126;51.560;14.368;2023-09-30T11:50:48;101206.88;;;22.16;52.10
65553;BME280;72126;51.560;14.368;2023-09-30T11:53:17;101204.22;;;22.16;51.80
65553;BME280;72126;51.560;14.368;2023-09-30T11:55:42;101204.22;;;22.16;52.07
65553;BME280;72126;51.560;14.368;2023-09-30T11:58:07;101205.25;;;22.15;52.14
65553;BME280;72126;51.560;14.368;2023-09-30T12:00:32;101202.59;;;22.15;51.92
65553;BME280;72126;51.560;14.368;2023-09-30T12:02:57;101206.06;;;22.15;51.79
65553;BME280;72126;51.560;14.368;2023-09-30T12:05:23;101210.38;;;22.16;51.28
65553;BME280;72126;51.560;14.368;2023-09-30T12:07:48;101208.53;;;22.17;51.52
65553;BME280;72126;51.560;14.368;2023-09-30T12:10:13;101210.38;;;22.16;51.33
65553;BME280;72126;51.560;14.368;2023-09-30T12:12:38;101205.03;;;22.16;51.50
65553;BME280;72126;51.560;14.368;2023-09-30T12:15:04;101198.06;;;22.15;51.65
65553;BME280;72126;51.560;14.368;2023-09-30T12:17:29;101200.72;;;22.15;51.32
65553;BME280;72126;51.560;14.368;2023-09-30T12:19:54;101198.88;;;22.16;51.65
65553;BME280;72126;51.560;14.368;2023-09-30T12:22:20;101197.03;;;22.16;50.99
65553;BME280;72126;51.560;14.368;2023-09-30T12:24:45;101198.69;;;22.17;50.93
65553;BME280;72126;51.560;14.368;2023-09-30T12:27:10;101189.88;;;22.17;50.78
65553;BME280;72126;51.560;14.368;2023-09-30T12:29:35;101177.53;;;22.16;50.86
65553;BME280;72126;51.560;14.368;2023-09-30T12:32:00;101187.22;;;22.17;50.87
65553;BME280;72126;51.560;14.368;2023-09-30T12:34:26;101189.88;;;22.17;50.49
65553;BME280;72126;51.560;14.368;2023-09-30T12:36:51;101185.13;;;22.19;50.71
65553;BME280;72126;51.560;14.368;2023-09-30T12:39:16;101173.44;;;22.20;50.39
65553;BME280;72126;51.560;14.368;2023-09-30T12:41:42;101173.22;;;22.22;50.25
65553;BME280;72126;51.560;14.368;2023-09-30T12:44:08;101166.88;;;22.23;49.79
65553;BME280;72126;51.560;14.368;2023-09-30T12:46:33;101163.78;;;22.26;49.56
65553;BME280;72126;51.560;14.368;2023-09-30T12:48:59;101171.56;;;22.27;49.75
65553;BME280;72126;51.560;14.368;2023-09-30T12:51:24;101169.50;;;22.29;49.51